Time;durP1;ratioP1;P1;durP2;ratioP2;P2;SDS_P1;SDS_P2;PMS_P1;PMS_P2;Temp;Humidity;BMP_temperature;BMP_pressure;BME280_temperature;BME280_humidity;BME280_pressure;Samples;Min_cycle;Max_cycle;Signal;HPM_P1;HPM_P2
2021/07/17 00:00:48;;;;;;;11.13;7.43;;;16.40;99.90;;;;;;5051443;28;20025;-86
2021/07/17 00:03:14;;;;;;;9.38;7.40;;;16.40;99.90;;;;;;5052764;28;20028;-84
2021/07/17 00:05:40;;;;;;;14.27;7.22;;;16.40;99.90;;;;;;5052470;28;20074;-84
2021/07/17 00:08:06;;;;;;;10.50;7.25;;;16.30;99.90;;;;;;5048496;28;20072;-84
2021/07/17 00:10:43;;;;;;;10.23;7.07;;;16.30;99.90;;;;;;5064849;28;20484;-84
2021/07/17 00:13:09;;;;;;;10.43;7.18;;;16.30;99.90;;;;;;5032353;28;20048;-87
2021/07/17 00:15:35;;;;;;;11.30;7.55;;;16.30;99.90;;;;;;5030364;28;20488;-84
2021/07/17 00:18:01;;;;;;;8.43;6.90;;;16.20;99.90;;;;;;5032748;28;20037;-87
2021/07/17 00:20:27;;;;;;;14.80;7.75;;;16.20;99.90;;;;;;5063949;28;20029;-87
2021/07/17 00:22:52;;;;;;;9.40;7.38;;;16.20;99.90;;;;;;5032692;28;20029;-83
2021/07/17 00:25:20;;;;;;;14.07;7.85;;;16.20;99.90;;;;;;5030917;28;20022;-87
2021/07/17 00:27:47;;;;;;;12.48;8.18;;;16.20;99.90;;;;;;5032132;28;20033;-87
2021/07/17 00:30:14;;;;;;;15.18;8.13;;;16.10;99.90;;;;;;5032292;28;20053;-84
2021/07/17 00:32:40;;;;;;;15.57;8.43;;;16.10;99.90;;;;;;5033863;28;20487;-83
2021/07/17 00:35:07;;;;;;;16.73;8.48;;;16.10;99.90;;;;;;5048269;28;20067;-84
2021/07/17 00:37:33;;;;;;;10.63;8.00;;;16.10;99.90;;;;;;5052135;28;20037;-84
2021/07/17 00:40:00;;;;;;;10.40;8.25;;;16.10;99.90;;;;;;5034930;28;20032;-87
2021/07/17 00:42:26;;;;;;;11.20;7.88;;;16.10;99.90;;;;;;5036314;28;20048;-86
2021/07/17 00:44:52;;;;;;;10.93;7.70;;;16.10;99.90;;;;;;5052252;28;20025;-84
2021/07/17 00:47:18;;;;;;;10.63;7.85;;;16.10;99.90;;;;;;5051683;28;20033;-84
2021/07/17 00:49:44;;;;;;;9.98;8.35;;;16.10;99.90;;;;;;5051393;28;20036;-87
2021/07/17 00:52:10;;;;;;;11.75;7.93;;;16.00;99.90;;;;;;5051435;28;20029;-87
2021/07/17 00:54:37;;;;;;;9.95;7.90;;;16.00;99.90;;;;;;5051978;28;20037;-84
2021/07/17 00:57:04;;;;;;;13.57;8.48;;;16.00;99.90;;;;;;5051726;28;20025;-84
2021/07/17 00:59:33;;;;;;;11.57;8.93;;;15.90;99.90;;;;;;5051306;28;20025;-84
2021/07/17 01:02:01;;;;;;;12.48;8.63;;;15.90;99.90;;;;;;5051663;28;20525;-86
2021/07/17 01:04:28;;;;;;;10.93;8.10;;;15.90;99.90;;;;;;5050205;28;20036;-87
2021/07/17 01:06:57;;;;;;;9.95;8.52;;;15.80;99.90;;;;;;5051543;28;20387;-83
2021/07/17 01:09:23;;;;;;;16.23;8.57;;;15.80;99.90;;;;;;5049829;28;20033;-87
2021/07/17 01:11:48;;;;;;;13.18;7.88;;;15.80;99.90;;;;;;5051219;28;20577;-84
2021/07/17 01:14:14;;;;;;;17.38;8.18;;;15.70;99.90;;;;;;5050814;28;20029;-84
2021/07/17 01:16:40;;;;;;;16.45;8.65;;;15.60;99.90;;;;;;5050644;28;20025;-86
2021/07/17 01:19:11;;;;;;;10.88;8.63;;;15.60;99.90;;;;;;5051410;28;20235;-86
2021/07/17 01:21:37;;;;;;;11.48;8.25;;;15.60;99.90;;;;;;5051375;28;20504;-84
2021/07/17 01:24:03;;;;;;;12.18;8.70;;;15.50;99.90;;;;;;5051838;28;20025;-84
2021/07/17 01:26:29;;;;;;;15.50;8.32;;;15.50;99.90;;;;;;5049789;28;20029;-84
2021/07/17 01:28:55;;;;;;;14.43;8.60;;;15.50;99.90;;;;;;5050671;28;20059;-87
2021/07/17 01:31:21;;;;;;;13.38;8.85;;;15.50;99.90;;;;;;5050716;28;20092;-87
2021/07/17 01:33:47;;;;;;;15.30;9.55;;;15.40;99.90;;;;;;5049540;28;20450;-84
2021/07/17 01:36:13;;;;;;;10.52;9.23;;;15.40;99.90;;;;;;5050287;28;20041;-87
2021/07/17 01:38:40;;;;;;;16.17;9.13;;;15.40;99.90;;;;;;5050889;28;20423;-84
2021/07/17 01:41:05;;;;;;;11.30;7.88;;;15.30;99.90;;;;;;5052882;28;20111;-87
2021/07/17 01:43:31;;;;;;;12.85;8.75;;;15.30;99.90;;;;;;5051054;28;20876;-86
2021/07/17 01:46:00;;;;;;;12.80;8.80;;;15.30;99.90;;;;;;5049094;28;20060;-86
2021/07/17 01:48:26;;;;;;;14.27;9.57;;;15.30;99.90;;;;;;5051059;28;20037;-86
2021/07/17 01:50:52;;;;;;;14.75;8.85;;;15.30;99.90;;;;;;5051240;28;20091;-84
2021/07/17 01:53:18;;;;;;;11.68;8.02;;;15.30;99.90;;;;;;5049896;28;20032;-84
2021/07/17 01:55:44;;;;;;;16.00;8.98;;;15.20;99.90;;;;;;5051236;28;20032;-87
2021/07/17 01:58:10;;;;;;;14.85;8.35;;;15.20;99.90;;;;;;5050937;28;20491;-84
2021/07/17 02:00:37;;;;;;;13.00;8.38;;;15.20;99.90;;;;;;5050740;28;20025;-87
2021/07/17 02:03:06;;;;;;;12.57;7.95;;;15.20;99.90;;;;;;5050675;28;20104;-87
2021/07/17 02:05:32;;;;;;;11.13;8.35;;;15.20;99.90;;;;;;5050820;28;20063;-87
2021/07/17 02:07:59;;;;;;;10.55;7.90;;;15.10;99.90;;;;;;5051171;28;20452;-87
2021/07/17 02:10:28;;;;;;;11.52;8.07;;;15.20;99.90;;;;;;5049797;28;20025;-87
2021/07/17 02:13:08;;;;;;;11.10;8.15;;;15.20;99.90;;;;;;5050309;28;20021;-84
2021/07/17 02:15:40;;;;;;;12.68;7.70;;;15.20;99.90;;;;;;5050536;28;20510;-84
2021/07/17 02:18:06;;;;;;;11.20;8.13;;;15.10;99.90;;;;;;5049843;28;20037;-84
2021/07/17 02:20:32;;;;;;;11.15;7.28;;;15.10;99.90;;;;;;5050592;28;20079;-87
2021/07/17 02:22:58;;;;;;;11.32;8.20;;;15.10;99.90;;;;;;5049247;28;20025;-87
2021/07/17 02:25:24;;;;;;;10.73;7.78;;;15.10;99.90;;;;;;5050567;28;20457;-87
2021/07/17 02:27:49;;;;;;;11.23;7.55;;;15.10;99.90;;;;;;5048865;28;20029;-84
2021/07/17 02:30:16;;;;;;;12.63;7.72;;;15.00;99.90;;;;;;5050114;28;20037;-83
2021/07/17 02:32:41;;;;;;;15.00;8.05;;;15.00;99.90;;;;;;5049988;28;20025;-87
2021/07/17 02:35:07;;;;;;;9.13;7.18;;;15.00;99.90;;;;;;5049857;28;20055;-87
2021/07/17 02:37:33;;;;;;;12.77;8.10;;;15.00;99.90;;;;;;5050020;28;20079;-87
2021/07/17 02:39:59;;;;;;;10.85;7.13;;;15.00;99.90;;;;;;5050797;28;20041;-84
2021/07/17 02:42:25;;;;;;;11.07;7.55;;;15.00;99.90;;;;;;5049934;28;20021;-83
2021/07/17 02:44:51;;;;;;;10.00;7.43;;;14.90;99.90;;;;;;5050261;28;20400;-83
2021/07/17 02:47:17;;;;;;;11.27;7.28;;;14.90;99.90;;;;;;5049523;28;20067;-87
2021/07/17 02:49:43;;;;;;;14.20;7.97;;;14.90;99.90;;;;;;5050316;28;20057;-87
2021/07/17 02:52:09;;;;;;;8.68;7.38;;;14.90;99.90;;;;;;5049723;28;20021;-87
2021/07/17 02:54:35;;;;;;;16.38;7.88;;;14.80;99.90;;;;;;5049768;28;20075;-83
2021/07/17 02:57:00;;;;;;;12.85;7.38;;;14.80;99.90;;;;;;5053462;28;20396;-87
2021/07/17 02:59:26;;;;;;;8.35;6.90;;;14.80;99.90;;;;;;5053770;28;20029;-83
2021/07/17 03:01:55;;;;;;;9.38;7.00;;;14.80;99.90;;;;;;5053867;28;20513;-86
2021/07/17 03:04:20;;;;;;;8.63;7.07;;;14.80;99.90;;;;;;5053487;28;20109;-84
2021/07/17 03:06:46;;;;;;;12.15;7.78;;;14.70;99.90;;;;;;5053773;28;20108;-86
2021/07/17 03:09:12;;;;;;;11.35;7.68;;;14.70;99.90;;;;;;5039944;28;20025;-83
2021/07/17 03:11:37;;;;;;;10.13;7.07;;;14.70;99.90;;;;;;5033789;28;20033;-86
2021/07/17 03:14:04;;;;;;;13.25;7.63;;;14.70;99.90;;;;;;5032859;28;20059;-86
2021/07/17 03:16:31;;;;;;;10.80;7.25;;;14.60;99.90;;;;;;5033458;28;20025;-86
2021/07/17 03:18:58;;;;;;;12.27;6.93;;;14.70;99.90;;;;;;5033646;28;20030;-83
2021/07/17 03:21:23;;;;;;;12.23;7.35;;;14.70;99.90;;;;;;5031814;28;20079;-86
2021/07/17 03:23:49;;;;;;;7.78;6.93;;;14.60;99.90;;;;;;5033436;28;20104;-84
2021/07/17 03:26:15;;;;;;;10.68;6.72;;;14.70;99.90;;;;;;5033523;28;20017;-86
2021/07/17 03:28:41;;;;;;;10.95;7.55;;;14.60;99.90;;;;;;5031766;28;20025;-86
2021/07/17 03:31:07;;;;;;;10.50;7.35;;;14.70;99.90;;;;;;5033090;28;20065;-87
2021/07/17 03:33:33;;;;;;;9.73;6.80;;;14.70;99.90;;;;;;5043177;28;20040;-86
2021/07/17 03:35:59;;;;;;;9.50;7.03;;;14.60;99.90;;;;;;5052876;28;20515;-85
2021/07/17 03:38:25;;;;;;;12.45;8.10;;;14.70;99.90;;;;;;5051826;28;20056;-83
2021/07/17 03:40:51;;;;;;;9.55;7.15;;;14.70;99.90;;;;;;5053134;28;20025;-83
2021/07/17 03:43:17;;;;;;;10.07;7.15;;;14.70;99.90;;;;;;5053141;28;20502;-84
2021/07/17 03:45:43;;;;;;;11.13;7.07;;;14.70;99.90;;;;;;5052264;28;20021;-83
2021/07/17 03:48:08;;;;;;;11.85;7.72;;;14.70;99.90;;;;;;5053165;28;20029;-84
2021/07/17 03:50:34;;;;;;;8.77;7.88;;;14.70;99.90;;;;;;5053031;28;20025;-83
2021/07/17 03:53:00;;;;;;;9.73;6.82;;;14.70;99.90;;;;;;5053080;28;20025;-86
2021/07/17 03:55:26;;;;;;;10.43;6.03;;;14.70;99.90;;;;;;5052717;28;20118;-86
2021/07/17 03:57:52;;;;;;;11.02;6.82;;;14.70;99.90;;;;;;5051078;28;20029;-86
2021/07/17 04:00:18;;;;;;;15.10;7.53;;;14.70;99.90;;;;;;5052777;28;20373;-84
2021/07/17 04:02:44;;;;;;;11.85;7.30;;;14.70;99.90;;;;;;5052265;28;20021;-83
2021/07/17 04:05:12;;;;;;;12.50;7.60;;;14.70;99.90;;;;;;5052639;28;20075;-87
2021/07/17 04:07:38;;;;;;;10.77;7.63;;;14.70;99.90;;;;;;5052397;28;20075;-86
2021/07/17 04:10:05;;;;;;;12.00;8.02;;;14.70;99.90;;;;;;5051046;28;20078;-84
2021/07/17 04:12:31;;;;;;;11.75;7.75;;;14.70;99.90;;;;;;5052257;28;20025;-84
2021/07/17 04:14:57;;;;;;;13.45;7.45;;;14.60;99.90;;;;;;5051581;28;20380;-83
2021/07/17 04:17:23;;;;;;;11.57;7.47;;;14.60;99.90;;;;;;5051182;28;20025;-87
2021/07/17 04:19:49;;;;;;;11.65;7.28;;;14.60;99.90;;;;;;5052049;28;20357;-84
2021/07/17 04:22:14;;;;;;;8.45;7.22;;;14.60;99.90;;;;;;5051717;28;20033;-83
2021/07/17 04:24:40;;;;;;;10.82;7.13;;;14.50;99.90;;;;;;5051950;28;20025;-83
2021/07/17 04:27:06;;;;;;;11.18;7.38;;;14.50;99.90;;;;;;5051879;28;20028;-87
2021/07/17 04:29:32;;;;;;;16.70;8.68;;;14.50;99.90;;;;;;5050126;28;20454;-84
2021/07/17 04:31:58;;;;;;;10.30;7.60;;;14.50;99.90;;;;;;5051496;28;20033;-87
2021/07/17 04:34:24;;;;;;;12.30;9.13;;;14.60;99.90;;;;;;5051239;28;20028;-83
2021/07/17 04:36:50;;;;;;;9.38;7.88;;;14.50;99.90;;;;;;5051131;28;20044;-83
2021/07/17 04:39:16;;;;;;;11.95;8.15;;;14.60;99.90;;;;;;5051619;28;20486;-84
2021/07/17 04:41:42;;;;;;;9.25;7.50;;;14.60;99.90;;;;;;5051446;28;20021;-86
2021/07/17 04:44:08;;;;;;;18.17;8.20;;;14.60;99.90;;;;;;5050628;28;20071;-84
2021/07/17 04:46:33;;;;;;;10.75;8.38;;;14.60;99.90;;;;;;5051485;28;20032;-86
2021/07/17 04:48:59;;;;;;;11.93;8.18;;;14.60;99.90;;;;;;5051472;28;20060;-84
2021/07/17 04:51:25;;;;;;;9.90;7.43;;;14.60;99.90;;;;;;5050176;28;20040;-83
2021/07/17 04:53:51;;;;;;;11.02;7.10;;;14.60;99.90;;;;;;5051152;28;20053;-83
2021/07/17 04:56:16;;;;;;;11.23;6.70;;;14.60;99.90;;;;;;5051539;28;20044;-86
2021/07/17 04:58:42;;;;;;;10.73;6.90;;;14.70;99.90;;;;;;5051202;28;20115;-83
2021/07/17 05:01:08;;;;;;;9.90;6.85;;;14.70;99.90;;;;;;5051567;28;20024;-84
2021/07/17 05:03:35;;;;;;;8.93;7.07;;;14.70;99.90;;;;;;5051909;28;20017;-83
2021/07/17 05:06:01;;;;;;;12.20;7.38;;;14.70;99.90;;;;;;5051693;28;20078;-83
2021/07/17 05:08:27;;;;;;;14.27;7.68;;;14.80;99.90;;;;;;5044410;28;20103;-83
2021/07/17 05:10:53;;;;;;;17.02;7.72;;;14.70;99.90;;;;;;5031554;28;20497;-86
2021/07/17 05:13:18;;;;;;;14.25;7.68;;;14.80;99.90;;;;;;5031192;28;20033;-84
2021/07/17 05:15:44;;;;;;;11.45;7.45;;;14.90;99.90;;;;;;5030863;28;20037;-83
2021/07/17 05:18:13;;;;;;;13.35;7.70;;;14.90;99.90;;;;;;5030070;28;20057;-83
2021/07/17 05:20:40;;;;;;;12.70;7.90;;;15.00;99.90;;;;;;5029473;28;20469;-85
2021/07/17 05:23:06;;;;;;;11.10;7.78;;;15.00;99.90;;;;;;5031794;28;20575;-85
2021/07/17 05:25:31;;;;;;;12.55;7.32;;;15.10;99.90;;;;;;5031080;28;20104;-85
2021/07/17 05:27:57;;;;;;;13.30;7.97;;;15.20;99.90;;;;;;5030766;28;20040;-85
2021/07/17 05:30:23;;;;;;;14.75;8.05;;;15.30;99.90;;;;;;5030059;28;20038;-85
2021/07/17 05:32:49;;;;;;;13.30;8.18;;;15.40;99.90;;;;;;5034994;28;20025;-83
2021/07/17 05:35:16;;;;;;;14.48;7.82;;;15.50;99.90;;;;;;5049108;28;20056;-86
2021/07/17 05:37:41;;;;;;;12.55;7.47;;;15.50;99.90;;;;;;5030957;28;20064;-86
2021/07/17 05:40:09;;;;;;;12.43;7.57;;;15.70;99.90;;;;;;5068410;28;20040;-83
2021/07/17 05:42:35;;;;;;;13.35;7.78;;;15.70;99.90;;;;;;5065452;28;20017;-86
2021/07/17 05:45:00;;;;;;;17.98;7.55;;;15.80;99.90;;;;;;5050993;28;20025;-84
2021/07/17 05:47:26;;;;;;;14.63;7.70;;;15.90;99.90;;;;;;5050463;28;20033;-83
2021/07/17 05:49:52;;;;;;;14.27;7.55;;;15.90;99.90;;;;;;5051078;28;20029;-86
2021/07/17 05:52:18;;;;;;;14.50;8.18;;;16.00;99.90;;;;;;5050458;28;20029;-86
2021/07/17 05:54:44;;;;;;;18.95;8.50;;;16.10;99.90;;;;;;5051162;28;20184;-86
2021/07/17 05:57:10;;;;;;;13.88;7.53;;;16.20;99.90;;;;;;5049539;28;20154;-84
2021/07/17 05:59:36;;;;;;;15.00;7.93;;;16.30;99.90;;;;;;5050662;28;20025;-84
2021/07/17 06:02:06;;;;;;;14.98;8.18;;;16.30;99.90;;;;;;5050745;28;20024;-86
2021/07/17 06:04:32;;;;;;;12.40;7.40;;;16.40;99.90;;;;;;5050300;28;20045;-86
2021/07/17 06:06:58;;;;;;;16.70;7.32;;;16.50;99.90;;;;;;5050539;28;20068;-83
2021/07/17 06:09:24;;;;;;;12.38;6.85;;;16.60;99.90;;;;;;5035434;28;20040;-87
2021/07/17 06:11:50;;;;;;;16.08;7.60;;;16.60;99.90;;;;;;5031427;28;20029;-84
2021/07/17 06:14:16;;;;;;;18.23;8.70;;;16.70;99.90;;;;;;5029073;28;20104;-86
2021/07/17 06:16:41;;;;;;;18.08;7.47;;;16.80;99.90;;;;;;5030169;28;20064;-86
2021/07/17 06:19:07;;;;;;;16.90;7.82;;;16.90;99.90;;;;;;5030638;28;20461;-84
2021/07/17 06:21:33;;;;;;;12.50;7.15;;;17.00;99.90;;;;;;5029416;28;20021;-84
2021/07/17 06:23:59;;;;;;;13.13;7.40;;;17.10;99.90;;;;;;5030342;28;20030;-84
2021/07/17 06:26:25;;;;;;;11.52;6.82;;;17.20;99.90;;;;;;5030679;28;20052;-84
2021/07/17 06:28:50;;;;;;;14.23;7.00;;;17.30;99.90;;;;;;5029944;28;20064;-84
2021/07/17 06:31:19;;;;;;;12.48;7.30;;;17.40;99.90;;;;;;5032851;28;20036;-86
2021/07/17 06:33:45;;;;;;;14.65;6.65;;;17.50;99.90;;;;;;5032770;28;20492;-86
2021/07/17 06:36:11;;;;;;;13.52;7.22;;;17.50;99.90;;;;;;5041962;28;20048;-84
2021/07/17 06:38:36;;;;;;;12.90;7.15;;;17.60;99.90;;;;;;5053055;28;20036;-84
2021/07/17 06:41:02;;;;;;;13.75;7.47;;;17.70;99.90;;;;;;5054084;28;20392;-87
2021/07/17 06:43:28;;;;;;;12.95;6.75;;;17.80;99.90;;;;;;5053899;28;20021;-87
2021/07/17 06:45:54;;;;;;;15.00;7.53;;;17.90;99.90;;;;;;5053529;28;20041;-83
2021/07/17 06:48:20;;;;;;;12.80;6.80;;;18.00;99.90;;;;;;5054030;28;20443;-84
2021/07/17 06:50:47;;;;;;;12.93;7.38;;;18.20;99.90;;;;;;5054584;28;20031;-84
2021/07/17 06:53:14;;;;;;;12.90;6.80;;;18.30;99.90;;;;;;5054573;28;20373;-87
2021/07/17 06:55:40;;;;;;;14.23;7.28;;;18.40;99.90;;;;;;5052545;28;20147;-86
2021/07/17 06:58:05;;;;;;;16.65;6.95;;;18.50;99.90;;;;;;5052967;28;20112;-85
2021/07/17 07:00:34;;;;;;;19.00;6.38;;;18.70;99.90;;;;;;5053821;28;20373;-84
2021/07/17 07:03:00;;;;;;;10.85;6.53;;;18.80;99.90;;;;;;5053673;28;20025;-86
2021/07/17 07:05:26;;;;;;;16.95;6.78;;;18.90;99.90;;;;;;5054027;28;20108;-85
2021/07/17 07:07:52;;;;;;;12.90;6.82;;;19.00;99.90;;;;;;5051633;28;20493;-87
2021/07/17 07:10:17;;;;;;;13.40;6.38;;;19.10;99.90;;;;;;5032266;28;20040;-84
2021/07/17 07:12:44;;;;;;;12.80;6.18;;;19.20;99.90;;;;;;5033940;28;20029;-84
2021/07/17 07:15:10;;;;;;;19.40;6.32;;;19.40;99.90;;;;;;5033914;28;20480;-84
2021/07/17 07:17:37;;;;;;;19.52;6.57;;;19.50;99.90;;;;;;5031547;28;20025;-84
2021/07/17 07:20:04;;;;;;;11.90;6.13;;;19.60;99.90;;;;;;5033561;28;20369;-84
2021/07/17 07:22:30;;;;;;;11.10;6.20;;;19.70;99.90;;;;;;5033600;28;20429;-87
2021/07/17 07:24:55;;;;;;;13.38;6.75;;;19.80;99.90;;;;;;5033898;28;20053;-87
2021/07/17 07:27:21;;;;;;;9.43;5.50;;;19.90;99.90;;;;;;5033732;28;20041;-85
2021/07/17 07:29:47;;;;;;;12.27;5.68;;;20.00;99.90;;;;;;5031456;28;20067;-88
2021/07/17 07:32:13;;;;;;;19.15;6.28;;;20.10;99.90;;;;;;5031760;28;20075;-87
2021/07/17 07:34:38;;;;;;;17.65;6.53;;;20.30;99.90;;;;;;5033603;28;20103;-87
2021/07/17 07:37:05;;;;;;;13.57;5.97;;;20.40;99.90;;;;;;5033380;28;20037;-85
2021/07/17 07:39:30;;;;;;;12.43;6.00;;;20.60;99.90;;;;;;5033361;28;20550;-86
2021/07/17 07:41:56;;;;;;;10.88;5.40;;;20.80;99.90;;;;;;5030964;28;20025;-84
2021/07/17 07:44:21;;;;;;;18.77;5.65;;;21.80;99.90;;;;;;5051770;28;20036;-85
2021/07/17 07:46:47;;;;;;;9.15;4.72;;;23.90;99.90;;;;;;5051607;28;20037;-85
2021/07/17 07:49:13;;;;;;;11.60;4.53;;;25.40;96.90;;;;;;5052903;28;20029;-88
2021/07/17 07:51:39;;;;;;;10.70;4.78;;;26.10;95.30;;;;;;5053056;28;20064;-85
2021/07/17 07:54:04;;;;;;;9.40;4.35;;;26.70;94.10;;;;;;5052870;28;20036;-85
2021/07/17 07:56:30;;;;;;;14.48;4.80;;;27.00;93.30;;;;;;5052618;28;20060;-88
2021/07/17 07:58:56;;;;;;;13.00;4.70;;;27.30;92.70;;;;;;5051150;28;20033;-88
2021/07/17 08:01:21;;;;;;;14.57;4.35;;;27.90;91.70;;;;;;5052004;28;20099;-88
2021/07/17 08:03:47;;;;;;;12.55;4.95;;;28.00;91.00;;;;;;5052529;28;20032;-85
2021/07/17 08:06:13;;;;;;;8.95;4.38;;;28.20;90.50;;;;;;5052574;28;20028;-88
2021/07/17 08:08:38;;;;;;;13.82;4.57;;;28.90;89.30;;;;;;5052171;28;20025;-85
2021/07/17 08:11:04;;;;;;;10.65;4.63;;;29.00;88.20;;;;;;5052537;28;20068;-87
2021/07/17 08:13:31;;;;;;;16.17;4.68;;;28.90;87.70;;;;;;5052613;28;20052;-88
2021/07/17 08:15:59;;;;;;;17.85;5.15;;;29.20;86.60;;;;;;5051560;28;20021;-85
2021/07/17 08:18:25;;;;;;;12.27;4.70;;;29.00;86.50;;;;;;5051817;28;20298;-86
2021/07/17 08:20:51;;;;;;;10.82;4.93;;;29.10;85.40;;;;;;5051972;28;20108;-85
2021/07/17 08:23:17;;;;;;;12.13;4.75;;;29.90;84.00;;;;;;5052110;28;20108;-84
2021/07/17 08:25:43;;;;;;;10.82;4.70;;;30.10;82.70;;;;;;5052595;28;20108;-86
2021/07/17 08:28:09;;;;;;;10.02;4.50;;;30.60;82.30;;;;;;5051130;28;20075;-85
2021/07/17 08:30:37;;;;;;;12.02;5.10;;;30.80;80.80;;;;;;5050634;28;20029;-83
2021/07/17 08:33:03;;;;;;;14.30;5.05;;;30.70;80.70;;;;;;5051032;28;20013;-87
2021/07/17 08:35:29;;;;;;;14.20;4.97;;;31.00;78.90;;;;;;5051888;28;20068;-83
2021/07/17 08:37:55;;;;;;;15.73;5.40;;;30.90;79.20;;;;;;5052184;28;20127;-85
2021/07/17 08:40:21;;;;;;;16.88;5.30;;;30.90;80.10;;;;;;5072303;28;20198;-86
2021/07/17 08:42:50;;;;;;;10.15;5.30;;;31.30;78.40;;;;;;5064820;28;20104;-83
2021/07/17 08:45:17;;;;;;;11.35;4.97;;;31.00;78.40;;;;;;5050773;28;20040;-85
2021/07/17 08:47:44;;;;;;;14.48;5.18;;;31.70;77.90;;;;;;5051545;28;20029;-84
2021/07/17 08:50:13;;;;;;;13.27;5.43;;;31.90;77.20;;;;;;5051298;28;20035;-86
2021/07/17 08:52:38;;;;;;;12.32;5.22;;;31.70;77.00;;;;;;5050962;28;20025;-86
2021/07/17 08:55:07;;;;;;;16.33;5.82;;;31.40;76.00;;;;;;5052115;28;20036;-85
2021/07/17 08:57:37;;;;;;;8.52;4.85;;;31.50;76.10;;;;;;5051522;28;20024;-83
2021/07/17 09:00:10;;;;;;;8.82;4.93;;;32.10;75.70;;;;;;5051303;28;20480;-84
2021/07/17 09:02:43;;;;;;;14.20;5.22;;;32.30;74.60;;;;;;5051098;28;20032;-83
2021/07/17 09:05:13;;;;;;;13.80;5.20;;;32.00;75.30;;;;;;5051454;28;20403;-86
2021/07/17 09:07:39;;;;;;;11.07;5.15;;;31.90;75.00;;;;;;5051163;28;20032;-82
2021/07/17 09:10:30;;;;;;;12.45;5.68;;;31.90;75.30;;;;;;5051860;28;20121;-83
2021/07/17 09:13:14;;;;;;;8.80;5.32;;;32.40;74.60;;;;;;5050771;28;20495;-83
2021/07/17 09:16:20;;;;;;;11.00;5.40;;;32.30;74.60;;;;;;5051430;28;20395;-83
2021/07/17 09:18:52;;;;;;;10.70;5.10;;;32.30;73.30;;;;;;5050918;28;20024;-86
2021/07/17 09:21:27;;;;;;;9.20;4.93;;;32.40;74.10;;;;;;5050974;28;20399;-86
2021/07/17 09:23:55;;;;;;;10.73;5.13;;;33.10;73.00;;;;;;5051003;28;20112;-83
2021/07/17 09:26:33;;;;;;;12.57;5.32;;;32.70;72.30;;;;;;5051100;28;20025;-87
2021/07/17 09:29:04;;;;;;;10.93;5.25;;;32.30;72.80;;;;;;5049938;28;20032;-83
2021/07/17 09:31:36;;;;;;;11.60;5.38;;;32.40;73.20;;;;;;5048844;28;20103;-86
2021/07/17 09:34:11;;;;;;;10.75;5.43;;;32.90;74.30;;;;;;5050921;28;20098;-86
2021/07/17 09:36:53;;;;;;;11.13;5.90;;;32.70;74.20;;;;;;5049353;28;20051;-83
2021/07/17 09:39:21;;;;;;;10.43;5.07;;;33.10;72.80;;;;;;5050977;28;20017;-86
2021/07/17 09:42:01;;;;;;;10.95;5.28;;;33.50;71.40;;;;;;5050968;28;20033;-86
2021/07/17 09:44:28;;;;;;;12.45;5.20;;;33.20;70.70;;;;;;5030704;28;20025;-86
2021/07/17 09:46:55;;;;;;;9.02;4.97;;;32.90;71.70;;;;;;5044753;28;20024;-83
2021/07/17 09:49:22;;;;;;;8.23;5.10;;;32.60;72.00;;;;;;5050703;28;20035;-83
2021/07/17 09:52:04;;;;;;;13.60;5.25;;;32.50;71.80;;;;;;5050675;28;20099;-86
2021/07/17 09:54:30;;;;;;;10.10;5.00;;;32.80;73.60;;;;;;5050959;28;20111;-84
2021/07/17 09:57:00;;;;;;;11.10;4.63;;;33.30;71.60;;;;;;5050723;28;20115;-85
2021/07/17 09:59:26;;;;;;;7.32;4.55;;;33.10;70.70;;;;;;5050933;28;20028;-86
2021/07/17 10:01:51;;;;;;;11.48;4.95;;;33.10;70.70;;;;;;5049253;28;20021;-84
2021/07/17 10:04:17;;;;;;;8.05;4.60;;;33.20;70.10;;;;;;5051414;28;20044;-84
2021/07/17 10:06:47;;;;;;;10.93;4.72;;;32.90;70.20;;;;;;5054461;28;20086;-83
2021/07/17 10:09:14;;;;;;;17.30;5.10;;;32.90;70.40;;;;;;5048459;28;20120;-84
2021/07/17 10:11:41;;;;;;;12.05;4.75;;;33.30;71.60;;;;;;5035208;28;20052;-83
2021/07/17 10:14:20;;;;;;;13.90;5.00;;;33.40;70.50;;;;;;5034146;28;20052;-83
2021/07/17 10:16:49;;;;;;;10.60;4.93;;;32.90;70.50;;;;;;5033935;28;20139;-83
2021/07/17 10:19:18;;;;;;;10.80;4.80;;;33.50;70.70;;;;;;5034608;28;20401;-83
2021/07/17 10:21:45;;;;;;;9.80;4.47;;;32.80;69.40;;;;;;5034511;28;20021;-86
2021/07/17 10:24:12;;;;;;;10.27;4.90;;;32.80;70.60;;;;;;5034144;28;20026;-83
2021/07/17 10:26:39;;;;;;;11.30;5.13;;;32.50;70.60;;;;;;5034284;28;20025;-83
2021/07/17 10:29:08;;;;;;;9.95;4.70;;;32.50;71.60;;;;;;5034357;28;20025;-84
2021/07/17 10:31:36;;;;;;;11.85;4.68;;;32.50;70.80;;;;;;5048046;28;20087;-83
2021/07/17 10:34:03;;;;;;;13.23;4.80;;;33.40;70.80;;;;;;5048127;28;20036;-85
2021/07/17 10:36:30;;;;;;;11.60;4.75;;;33.00;70.70;;;;;;5054219;28;20523;-86
2021/07/17 10:39:06;;;;;;;9.65;4.53;;;33.50;71.00;;;;;;5053066;28;20403;-86
2021/07/17 10:41:34;;;;;;;7.68;4.35;;;33.10;70.50;;;;;;5052620;28;20021;-84
2021/07/17 10:44:00;;;;;;;10.18;4.80;;;33.60;69.90;;;;;;5053761;28;20025;-84
2021/07/17 10:46:31;;;;;;;9.43;4.53;;;33.40;69.60;;;;;;5053085;28;20047;-84
2021/07/17 10:48:59;;;;;;;7.57;4.40;;;33.70;70.10;;;;;;5054145;28;20029;-88
2021/07/17 10:51:30;;;;;;;8.55;4.47;;;33.30;69.80;;;;;;5052454;28;20032;-84
2021/07/17 10:53:58;;;;;;;6.70;4.43;;;33.10;69.40;;;;;;5052623;28;20174;-83
2021/07/17 10:56:30;;;;;;;8.85;4.43;;;33.00;69.80;;;;;;5053576;28;20128;-84
2021/07/17 10:59:07;;;;;;;7.43;4.38;;;33.00;72.30;;;;;;5053651;28;20021;-84
2021/07/17 11:02:02;;;;;;;6.57;4.30;;;33.30;71.00;;;;;;5053228;28;20495;-87
2021/07/17 11:04:39;;;;;;;9.32;4.32;;;32.80;70.70;;;;;;5052199;28;20044;-86
2021/07/17 11:07:17;;;;;;;9.80;4.43;;;33.30;70.20;;;;;;5053820;28;20369;-84
2021/07/17 11:10:03;;;;;;;9.68;4.38;;;33.40;69.60;;;;;;5035306;28;20029;-84
2021/07/17 11:12:31;;;;;;;9.43;4.68;;;33.20;69.00;;;;;;5029476;28;20128;-84
2021/07/17 11:15:18;;;;;;;10.73;4.75;;;32.60;70.50;;;;;;5031885;28;20465;-86
2021/07/17 11:17:49;;;;;;;7.55;4.15;;;32.40;71.30;;;;;;5028509;28;20095;-85
2021/07/17 11:20:17;;;;;;;6.55;3.90;;;32.40;70.00;;;;;;5032949;28;20447;-84
2021/07/17 11:22:44;;;;;;;9.80;4.32;;;33.00;70.40;;;;;;5033297;28;20095;-84
2021/07/17 11:25:10;;;;;;;6.55;4.13;;;33.00;69.90;;;;;;5033490;28;20431;-84
2021/07/17 11:27:42;;;;;;;9.40;4.05;;;33.10;69.50;;;;;;5033511;28;20044;-86
2021/07/17 11:30:16;;;;;;;12.73;4.05;;;33.20;69.00;;;;;;5033375;28;20060;-84
2021/07/17 11:33:14;;;;;;;10.48;4.47;;;33.50;69.70;;;;;;5034227;28;20116;-85
2021/07/17 11:35:42;;;;;;;11.63;4.35;;;33.60;70.10;;;;;;5043863;28;20040;-85
2021/07/17 11:38:12;;;;;;;7.88;4.22;;;33.70;69.90;;;;;;5052406;28;20040;-84
2021/07/17 11:40:38;;;;;;;8.85;4.28;;;33.60;69.00;;;;;;5052902;28;20480;-85
2021/07/17 11:43:07;;;;;;;10.55;4.25;;;33.30;69.50;;;;;;5052456;28;20043;-86
2021/07/17 11:45:33;;;;;;;10.45;4.15;;;33.70;68.50;;;;;;5051325;28;20017;-87
2021/07/17 11:48:09;;;;;;;9.88;4.63;;;33.70;69.30;;;;;;5052452;28;20035;-85
2021/07/17 11:50:36;;;;;;;9.63;4.30;;;33.70;68.60;;;;;;5052590;28;20444;-84
2021/07/17 11:53:15;;;;;;;12.20;4.65;;;33.40;69.20;;;;;;5052682;28;20550;-86
2021/07/17 11:55:41;;;;;;;7.35;4.10;;;33.90;69.90;;;;;;5052749;28;20395;-85
2021/07/17 11:58:17;;;;;;;9.57;4.10;;;33.90;69.20;;;;;;5052678;28;20488;-85
2021/07/17 12:00:43;;;;;;;6.90;3.70;;;33.70;69.60;;;;;;5052596;28;20024;-85
2021/07/17 12:03:09;;;;;;;9.20;4.68;;;33.90;69.00;;;;;;5052430;28;20073;-86
2021/07/17 12:05:35;;;;;;;10.43;4.30;;;33.60;69.00;;;;;;5052950;28;20453;-86
2021/07/17 12:08:02;;;;;;;10.27;4.15;;;33.40;69.10;;;;;;5052719;28;20558;-85
2021/07/17 12:10:28;;;;;;;8.60;3.88;;;33.50;68.90;;;;;;5052668;28;20431;-85
2021/07/17 12:12:57;;;;;;;8.93;4.40;;;33.70;69.00;;;;;;5052592;28;20507;-85
2021/07/17 12:15:30;;;;;;;9.73;4.10;;;33.30;68.80;;;;;;5052366;28;20025;-86
2021/07/17 12:18:10;;;;;;;10.77;4.32;;;33.20;70.10;;;;;;5051789;28;20447;-85
2021/07/17 12:20:38;;;;;;;8.02;4.07;;;33.50;70.90;;;;;;5052025;28;20051;-85
2021/07/17 12:23:14;;;;;;;10.50;4.10;;;33.60;69.10;;;;;;5052074;28;20013;-84
2021/07/17 12:25:41;;;;;;;11.93;4.30;;;33.60;70.50;;;;;;5052161;28;20025;-84
2021/07/17 12:28:17;;;;;;;11.18;4.15;;;33.70;69.30;;;;;;5050869;28;20139;-84
2021/07/17 12:30:47;;;;;;;10.73;4.07;;;34.00;69.30;;;;;;5052112;28;20059;-84
2021/07/17 12:33:20;;;;;;;9.75;4.38;;;33.10;68.20;;;;;;5048598;28;20041;-85
2021/07/17 12:35:49;;;;;;;8.18;3.80;;;33.30;69.70;;;;;;5051828;28;20471;-85
2021/07/17 12:38:22;;;;;;;11.23;3.92;;;33.40;70.30;;;;;;5048818;28;20043;-85
2021/07/17 12:41:03;;;;;;;9.65;4.65;;;33.50;69.30;;;;;;5032154;28;20567;-84